sensor_id;sensor_type;location;lat;lon;timestamp;P1;durP1;ratioP1;P2;durP2;ratioP2
21034;SDS011;10676;50.848;3.272;2023-04-01T00:00:49;14.95;;;10.07;;
21034;SDS011;10676;50.848;3.272;2023-04-01T00:03:15;11.07;;;10.13;;
21034;SDS011;10676;50.848;3.272;2023-04-01T00:05:42;14.50;;;11.93;;
21034;SDS011;10676;50.848;3.272;2023-04-01T00:08:07;18.25;;;11.90;;
21034;SDS011;10676;50.848;3.272;2023-04-01T00:10:33;13.93;;;9.73;;
21034;SDS011;10676;50.848;3.272;2023-04-01T00:12:59;13.50;;;10.20;;
21034;SDS011;10676;50.848;3.272;2023-04-01T00:15:25;20.10;;;11.45;;
21034;SDS011;10676;50.848;3.272;2023-04-01T00:17:51;15.73;;;11.43;;
21034;SDS011;10676;50.848;3.272;2023-04-01T00:20:16;13.25;;;10.25;;
21034;SDS011;10676;50.848;3.272;2023-04-01T00:22:42;15.35;;;10.30;;
21034;SDS011;10676;50.848;3.272;2023-04-01T00:25:08;15.57;;;12.02;;
21034;SDS011;10676;50.848;3.272;2023-04-01T00:27:34;13.15;;;9.70;;
21034;SDS011;10676;50.848;3.272;2023-04-01T00:30:00;16.05;;;9.77;;
21034;SDS011;10676;50.848;3.272;2023-04-01T00:32:26;16.25;;;9.18;;
21034;SDS011;10676;50.848;3.272;2023-04-01T00:34:52;13.45;;;9.93;;
21034;SDS011;10676;50.848;3.272;2023-04-01T00:37:18;12.70;;;9.93;;
21034;SDS011;10676;50.848;3.272;2023-04-01T00:39:46;16.83;;;10.48;;
21034;SDS011;10676;50.848;3.272;2023-04-01T00:42:12;19.15;;;10.48;;
21034;SDS011;10676;50.848;3.272;2023-04-01T00:44:39;16.55;;;10.07;;
21034;SDS011;10676;50.848;3.272;2023-04-01T00:47:05;17.00;;;10.85;;
21034;SDS011;10676;50.848;3.272;2023-04-01T00:49:40;20.27;;;10.82;;
21034;SDS011;10676;50.848;3.272;2023-04-01T00:52:10;17.55;;;11.70;;
21034;SDS011;10676;50.848;3.272;2023-04-01T00:54:39;16.95;;;12.40;;
21034;SDS011;10676;50.848;3.272;2023-04-01T00:57:09;15.73;;;11.02;;
21034;SDS011;10676;50.848;3.272;2023-04-01T00:59:40;18.42;;;12.38;;
21034;SDS011;10676;50.848;3.272;2023-04-01T01:02:09;17.05;;;11.77;;
21034;SDS011;10676;50.848;3.272;2023-04-01T01:04:37;19.63;;;10.93;;
21034;SDS011;10676;50.848;3.272;2023-04-01T01:09:43;22.00;;;10.73;;
21034;SDS011;10676;50.848;3.272;2023-04-01T01:12:21;20.10;;;10.82;;
21034;SDS011;10676;50.848;3.272;2023-04-01T01:17:44;20.70;;;13.07;;
21034;SDS011;10676;50.848;3.272;2023-04-01T01:31:24;20.70;;;13.25;;
21034;SDS011;10676;50.848;3.272;2023-04-01T01:34:06;21.42;;;12.82;;
21034;SDS011;10676;50.848;3.272;2023-04-01T01:36:42;20.55;;;16.77;;
21034;SDS011;10676;50.848;3.272;2023-04-01T01:39:10;23.58;;;14.27;;
21034;SDS011;10676;50.848;3.272;2023-04-01T01:41:38;26.88;;;14.15;;
21034;SDS011;10676;50.848;3.272;2023-04-01T01:44:07;24.77;;;14.85;;
21034;SDS011;10676;50.848;3.272;2023-04-01T01:46:35;23.42;;;14.50;;
21034;SDS011;10676;50.848;3.272;2023-04-01T01:49:03;20.20;;;13.00;;
21034;SDS011;10676;50.848;3.272;2023-04-01T01:51:31;23.52;;;13.60;;
21034;SDS011;10676;50.848;3.272;2023-04-01T01:53:57;18.20;;;13.48;;
21034;SDS011;10676;50.848;3.272;2023-04-01T01:56:23;28.33;;;14.48;;
21034;SDS011;10676;50.848;3.272;2023-04-01T01:58:54;23.35;;;12.15;;
21034;SDS011;10676;50.848;3.272;2023-04-01T02:01:28;17.52;;;13.13;;
21034;SDS011;10676;50.848;3.272;2023-04-01T02:03:56;33.28;;;14.82;;
21034;SDS011;10676;50.848;3.272;2023-04-01T02:06:23;23.42;;;13.82;;
21034;SDS011;10676;50.848;3.272;2023-04-01T02:08:56;22.92;;;13.95;;
21034;SDS011;10676;50.848;3.272;2023-04-01T02:11:25;23.40;;;14.15;;
21034;SDS011;10676;50.848;3.272;2023-04-01T02:14:05;24.55;;;14.15;;
21034;SDS011;10676;50.848;3.272;2023-04-01T02:19:09;29.60;;;16.77;;
21034;SDS011;10676;50.848;3.272;2023-04-01T02:21:38;23.15;;;11.85;;
21034;SDS011;10676;50.848;3.272;2023-04-01T02:24:07;20.98;;;12.68;;
21034;SDS011;10676;50.848;3.272;2023-04-01T02:26:36;21.88;;;13.88;;
21034;SDS011;10676;50.848;3.272;2023-04-01T02:29:03;20.83;;;12.48;;
21034;SDS011;10676;50.848;3.272;2023-04-01T02:31:30;18.77;;;12.50;;
21034;SDS011;10676;50.848;3.272;2023-04-01T02:33:57;17.85;;;11.55;;
21034;SDS011;10676;50.848;3.272;2023-04-01T02:36:23;22.70;;;12.20;;
21034;SDS011;10676;50.848;3.272;2023-04-01T02:38:49;22.80;;;12.77;;
21034;SDS011;10676;50.848;3.272;2023-04-01T02:41:16;14.23;;;10.70;;
21034;SDS011;10676;50.848;3.272;2023-04-01T02:43:42;17.20;;;14.27;;
21034;SDS011;10676;50.848;3.272;2023-04-01T02:46:07;19.27;;;14.93;;
21034;SDS011;10676;50.848;3.272;2023-04-01T02:48:33;19.85;;;13.68;;
21034;SDS011;10676;50.848;3.272;2023-04-01T02:50:59;21.08;;;11.10;;
21034;SDS011;10676;50.848;3.272;2023-04-01T02:53:25;19.73;;;12.38;;
21034;SDS011;10676;50.848;3.272;2023-04-01T02:55:51;20.33;;;18.20;;
21034;SDS011;10676;50.848;3.272;2023-04-01T02:58:17;19.63;;;11.55;;
21034;SDS011;10676;50.848;3.272;2023-04-01T03:00:43;22.27;;;13.02;;
21034;SDS011;10676;50.848;3.272;2023-04-01T03:03:09;15.95;;;12.27;;
21034;SDS011;10676;50.848;3.272;2023-04-01T03:05:35;24.00;;;14.93;;
21034;SDS011;10676;50.848;3.272;2023-04-01T03:08:01;23.55;;;13.65;;
21034;SDS011;10676;50.848;3.272;2023-04-01T03:10:27;20.15;;;13.82;;
21034;SDS011;10676;50.848;3.272;2023-04-01T03:12:53;25.20;;;15.85;;
21034;SDS011;10676;50.848;3.272;2023-04-01T03:15:19;18.23;;;14.48;;
21034;SDS011;10676;50.848;3.272;2023-04-01T03:17:44;22.73;;;15.30;;
21034;SDS011;10676;50.848;3.272;2023-04-01T03:20:11;22.77;;;14.55;;
21034;SDS011;10676;50.848;3.272;2023-04-01T03:22:37;19.73;;;15.23;;
21034;SDS011;10676;50.848;3.272;2023-04-01T03:25:04;22.33;;;16.85;;
21034;SDS011;10676;50.848;3.272;2023-04-01T03:27:30;19.85;;;16.40;;
21034;SDS011;10676;50.848;3.272;2023-04-01T03:29:56;25.40;;;15.77;;
21034;SDS011;10676;50.848;3.272;2023-04-01T03:32:22;23.80;;;15.00;;
21034;SDS011;10676;50.848;3.272;2023-04-01T03:34:47;22.05;;;16.33;;
21034;SDS011;10676;50.848;3.272;2023-04-01T03:37:13;20.98;;;14.48;;
21034;SDS011;10676;50.848;3.272;2023-04-01T03:39:39;27.35;;;17.23;;
21034;SDS011;10676;50.848;3.272;2023-04-01T03:42:05;26.65;;;18.75;;
21034;SDS011;10676;50.848;3.272;2023-04-01T03:44:32;24.77;;;17.52;;
21034;SDS011;10676;50.848;3.272;2023-04-01T03:46:58;19.63;;;14.70;;
21034;SDS011;10676;50.848;3.272;2023-04-01T03:49:24;20.25;;;15.00;;
21034;SDS011;10676;50.848;3.272;2023-04-01T03:51:50;17.73;;;14.02;;
21034;SDS011;10676;50.848;3.272;2023-04-01T03:54:15;18.40;;;14.35;;
21034;SDS011;10676;50.848;3.272;2023-04-01T03:56:42;23.40;;;15.90;;
21034;SDS011;10676;50.848;3.272;2023-04-01T03:59:07;19.70;;;15.65;;
21034;SDS011;10676;50.848;3.272;2023-04-01T04:01:34;24.50;;;18.45;;
21034;SDS011;10676;50.848;3.272;2023-04-01T04:04:00;22.80;;;17.98;;
21034;SDS011;10676;50.848;3.272;2023-04-01T04:06:26;26.25;;;16.45;;
21034;SDS011;10676;50.848;3.272;2023-04-01T04:08:52;29.77;;;16.85;;
21034;SDS011;10676;50.848;3.272;2023-04-01T04:11:18;27.88;;;17.42;;
21034;SDS011;10676;50.848;3.272;2023-04-01T04:13:45;21.40;;;15.40;;
21034;SDS011;10676;50.848;3.272;2023-04-01T04:16:12;27.10;;;16.67;;
21034;SDS011;10676;50.848;3.272;2023-04-01T04:18:39;20.85;;;17.20;;
21034;SDS011;10676;50.848;3.272;2023-04-01T04:21:05;21.02;;;15.70;;
21034;SDS011;10676;50.848;3.272;2023-04-01T04:23:31;21.27;;;15.10;;
21034;SDS011;10676;50.848;3.272;2023-04-01T04:28:25;25.10;;;16.25;;
21034;SDS011;10676;50.848;3.272;2023-04-01T04:30:51;23.40;;;15.52;;
21034;SDS011;10676;50.848;3.272;2023-04-01T04:33:17;22.92;;;15.98;;
21034;SDS011;10676;50.848;3.272;2023-04-01T04:35:43;19.42;;;14.75;;
21034;SDS011;10676;50.848;3.272;2023-04-01T04:38:09;21.25;;;15.63;;
21034;SDS011;10676;50.848;3.272;2023-04-01T04:40:38;27.13;;;17.35;;
21034;SDS011;10676;50.848;3.272;2023-04-01T04:43:05;18.40;;;14.40;;
21034;SDS011;10676;50.848;3.272;2023-04-01T04:45:31;25.88;;;17.85;;
21034;SDS011;10676;50.848;3.272;2023-04-01T04:47:57;25.35;;;18.23;;
21034;SDS011;10676;50.848;3.272;2023-04-01T04:50:23;18.40;;;13.02;;
21034;SDS011;10676;50.848;3.272;2023-04-01T04:52:50;21.40;;;15.48;;
21034;SDS011;10676;50.848;3.272;2023-04-01T04:55:16;19.70;;;14.88;;
21034;SDS011;10676;50.848;3.272;2023-04-01T04:57:42;23.55;;;14.45;;
21034;SDS011;10676;50.848;3.272;2023-04-01T05:00:07;26.55;;;15.77;;
21034;SDS011;10676;50.848;3.272;2023-04-01T05:02:35;21.02;;;14.48;;
21034;SDS011;10676;50.848;3.272;2023-04-01T05:05:00;19.75;;;14.50;;
21034;SDS011;10676;50.848;3.272;2023-04-01T05:07:26;21.55;;;13.85;;
21034;SDS011;10676;50.848;3.272;2023-04-01T05:09:52;18.05;;;14.43;;
21034;SDS011;10676;50.848;3.272;2023-04-01T05:12:17;19.83;;;14.02;;
21034;SDS011;10676;50.848;3.272;2023-04-01T05:14:43;16.33;;;13.30;;
21034;SDS011;10676;50.848;3.272;2023-04-01T05:17:09;16.90;;;13.40;;
21034;SDS011;10676;50.848;3.272;2023-04-01T05:19:36;16.83;;;13.32;;
21034;SDS011;10676;50.848;3.272;2023-04-01T05:22:02;18.00;;;14.52;;
21034;SDS011;10676;50.848;3.272;2023-04-01T05:24:27;17.73;;;13.48;;
21034;SDS011;10676;50.848;3.272;2023-04-01T05:26:53;21.90;;;14.32;;
21034;SDS011;10676;50.848;3.272;2023-04-01T05:29:19;21.10;;;13.32;;
21034;SDS011;10676;50.848;3.272;2023-04-01T05:31:44;18.52;;;16.15;;
21034;SDS011;10676;50.848;3.272;2023-04-01T05:34:10;15.02;;;12.60;;
21034;SDS011;10676;50.848;3.272;2023-04-01T05:36:36;19.25;;;14.23;;
21034;SDS011;10676;50.848;3.272;2023-04-01T05:39:01;20.85;;;13.63;;
21034;SDS011;10676;50.848;3.272;2023-04-01T05:41:28;20.50;;;13.25;;
21034;SDS011;10676;50.848;3.272;2023-04-01T05:43:53;15.85;;;14.18;;
21034;SDS011;10676;50.848;3.272;2023-04-01T05:46:19;19.77;;;13.95;;
21034;SDS011;10676;50.848;3.272;2023-04-01T05:48:45;15.57;;;13.60;;
21034;SDS011;10676;50.848;3.272;2023-04-01T05:51:12;15.40;;;13.82;;
21034;SDS011;10676;50.848;3.272;2023-04-01T05:53:39;22.55;;;13.85;;
21034;SDS011;10676;50.848;3.272;2023-04-01T05:56:05;19.02;;;13.32;;
21034;SDS011;10676;50.848;3.272;2023-04-01T05:58:34;16.80;;;14.30;;
21034;SDS011;10676;50.848;3.272;2023-04-01T06:01:04;20.58;;;13.82;;
21034;SDS011;10676;50.848;3.272;2023-04-01T06:03:34;19.35;;;14.85;;
21034;SDS011;10676;50.848;3.272;2023-04-01T06:06:00;15.75;;;13.38;;
21034;SDS011;10676;50.848;3.272;2023-04-01T06:08:26;19.60;;;14.27;;
21034;SDS011;10676;50.848;3.272;2023-04-01T06:11:01;23.40;;;15.13;;
21034;SDS011;10676;50.848;3.272;2023-04-01T06:24:03;17.50;;;13.45;;
21034;SDS011;10676;50.848;3.272;2023-04-01T06:27:01;15.25;;;12.75;;
21034;SDS011;10676;50.848;3.272;2023-04-01T06:29:55;19.08;;;13.02;;
21034;SDS011;10676;50.848;3.272;2023-04-01T06:35:22;18.27;;;13.68;;
21034;SDS011;10676;50.848;3.272;2023-04-01T06:38:05;15.10;;;12.25;;
21034;SDS011;10676;50.848;3.272;2023-04-01T06:43:40;14.77;;;12.02;;
21034;SDS011;10676;50.848;3.272;2023-04-01T06:49:20;13.95;;;12.18;;
21034;SDS011;10676;50.848;3.272;2023-04-01T06:51:47;13.80;;;11.27;;
21034;SDS011;10676;50.848;3.272;2023-04-01T06:54:40;12.93;;;11.63;;
21034;SDS011;10676;50.848;3.272;2023-04-01T07:00:04;11.48;;;10.32;;
21034;SDS011;10676;50.848;3.272;2023-04-01T07:06:02;12.55;;;11.35;;
21034;SDS011;10676;50.848;3.272;2023-04-01T07:08:30;12.27;;;10.38;;
21034;SDS011;10676;50.848;3.272;2023-04-01T07:11:01;13.30;;;10.43;;
21034;SDS011;10676;50.848;3.272;2023-04-01T07:13:34;11.68;;;10.35;;
21034;SDS011;10676;50.848;3.272;2023-04-01T07:16:49;11.13;;;10.02;;
21034;SDS011;10676;50.848;3.272;2023-04-01T07:21:47;8.90;;;8.02;;
21034;SDS011;10676;50.848;3.272;2023-04-01T07:24:22;10.35;;;9.43;;
21034;SDS011;10676;50.848;3.272;2023-04-01T07:26:53;9.40;;;8.65;;
21034;SDS011;10676;50.848;3.272;2023-04-01T07:29:20;8.32;;;7.63;;
21034;SDS011;10676;50.848;3.272;2023-04-01T07:45:34;44.55;;;33.45;;
21034;SDS011;10676;50.848;3.272;2023-04-01T08:02:02;18.27;;;16.50;;
21034;SDS011;10676;50.848;3.272;2023-04-01T08:04:57;11.32;;;10.43;;
21034;SDS011;10676;50.848;3.272;2023-04-01T08:07:31;17.15;;;15.55;;
21034;SDS011;10676;50.848;3.272;2023-04-01T08:10:32;41.80;;;37.42;;
21034;SDS011;10676;50.848;3.272;2023-04-01T08:16:17;13.40;;;11.80;;
21034;SDS011;10676;50.848;3.272;2023-04-01T08:21:38;12.60;;;11.52;;
21034;SDS011;10676;50.848;3.272;2023-04-01T08:24:28;11.10;;;9.93;;
21034;SDS011;10676;50.848;3.272;2023-04-01T08:27:02;17.02;;;15.25;;
21034;SDS011;10676;50.848;3.272;2023-04-01T08:29:37;19.60;;;17.60;;
21034;SDS011;10676;50.848;3.272;2023-04-01T08:32:15;12.20;;;11.15;;
21034;SDS011;10676;50.848;3.272;2023-04-01T08:35:16;14.93;;;13.40;;
21034;SDS011;10676;50.848;3.272;2023-04-01T08:37:52;12.73;;;10.77;;
21034;SDS011;10676;50.848;3.272;2023-04-01T08:43:06;14.57;;;9.38;;
21034;SDS011;10676;50.848;3.272;2023-04-01T08:45:45;10.25;;;9.30;;
21034;SDS011;10676;50.848;3.272;2023-04-01T08:54:18;10.48;;;9.55;;
21034;SDS011;10676;50.848;3.272;2023-04-01T09:03:15;9.38;;;8.55;;
21034;SDS011;10676;50.848;3.272;2023-04-01T09:20:47;12.00;;;11.00;;
21034;SDS011;10676;50.848;3.272;2023-04-01T09:23:37;9.30;;;8.18;;
21034;SDS011;10676;50.848;3.272;2023-04-01T09:34:06;10.45;;;9.38;;
21034;SDS011;10676;50.848;3.272;2023-04-01T09:36:57;8.40;;;7.65;;
21034;SDS011;10676;50.848;3.272;2023-04-01T09:42:44;11.52;;;8.68;;
21034;SDS011;10676;50.848;3.272;2023-04-01T10:04:58;6.90;;;6.60;;
21034;SDS011;10676;50.848;3.272;2023-04-01T10:07:54;5.88;;;5.35;;
21034;SDS011;10676;50.848;3.272;2023-04-01T10:13:08;10.85;;;7.70;;
21034;SDS011;10676;50.848;3.272;2023-04-01T10:18:47;6.70;;;6.10;;
21034;SDS011;10676;50.848;3.272;2023-04-01T10:27:26;7.57;;;6.72;;
21034;SDS011;10676;50.848;3.272;2023-04-01T10:46:15;7.82;;;7.15;;
21034;SDS011;10676;50.848;3.272;2023-04-01T11:00:45;6.63;;;6.15;;
21034;SDS011;10676;50.848;3.272;2023-04-01T11:07:05;6.88;;;6.47;;
21034;SDS011;10676;50.848;3.272;2023-04-01T11:27:30;8.82;;;8.18;;
21034;SDS011;10676;50.848;3.272;2023-04-01T11:30:14;8.90;;;8.40;;
21034;SDS011;10676;50.848;3.272;2023-04-01T11:32:59;8.02;;;7.60;;
21034;SDS011;10676;50.848;3.272;2023-04-01T11:35:55;7.43;;;6.80;;
21034;SDS011;10676;50.848;3.272;2023-04-01T11:44:14;7.10;;;6.53;;
21034;SDS011;10676;50.848;3.272;2023-04-01T11:52:30;7.40;;;6.93;;
21034;SDS011;10676;50.848;3.272;2023-04-01T12:03:18;11.15;;;10.65;;
21034;SDS011;10676;50.848;3.272;2023-04-01T12:14:18;7.65;;;7.25;;
21034;SDS011;10676;50.848;3.272;2023-04-01T12:19:53;9.80;;;9.20;;
21034;SDS011;10676;50.848;3.272;2023-04-01T12:39:44;7.05;;;6.75;;
21034;SDS011;10676;50.848;3.272;2023-04-01T12:53:35;8.10;;;7.80;;
21034;SDS011;10676;50.848;3.272;2023-04-01T13:02:12;6.97;;;6.72;;
21034;SDS011;10676;50.848;3.272;2023-04-01T13:05:15;8.70;;;8.30;;
21034;SDS011;10676;50.848;3.272;2023-04-01T13:10:48;9.23;;;8.82;;
21034;SDS011;10676;50.848;3.272;2023-04-01T13:16:11;10.77;;;10.18;;
21034;SDS011;10676;50.848;3.272;2023-04-01T13:26:29;9.48;;;8.95;;
21034;SDS011;10676;50.848;3.272;2023-04-01T13:29:11;14.00;;;12.77;;
21034;SDS011;10676;50.848;3.272;2023-04-01T13:37:05;7.85;;;7.43;;
21034;SDS011;10676;50.848;3.272;2023-04-01T13:40:04;6.43;;;5.97;;
21034;SDS011;10676;50.848;3.272;2023-04-01T13:43:11;6.43;;;6.15;;
21034;SDS011;10676;50.848;3.272;2023-04-01T13:52:05;7.32;;;7.00;;
21034;SDS011;10676;50.848;3.272;2023-04-01T13:55:01;7.25;;;6.85;;
21034;SDS011;10676;50.848;3.272;2023-04-01T14:00:30;7.38;;;6.93;;
21034;SDS011;10676;50.848;3.272;2023-04-01T14:47:51;11.23;;;10.43;;
21034;SDS011;10676;50.848;3.272;2023-04-01T14:50:21;11.02;;;10.13;;
21034;SDS011;10676;50.848;3.272;2023-04-01T14:55:51;10.18;;;9.48;;
21034;SDS011;10676;50.848;3.272;2023-04-01T14:58:23;10.80;;;9.85;;
21034;SDS011;10676;50.848;3.272;2023-04-01T15:00:58;9.43;;;8.93;;
21034;SDS011;10676;50.848;3.272;2023-04-01T15:03:37;19.25;;;17.65;;
21034;SDS011;10676;50.848;3.272;2023-04-01T15:09:21;13.05;;;12.15;;
21034;SDS011;10676;50.848;3.272;2023-04-01T15:14:37;9.60;;;8.75;;
21034;SDS011;10676;50.848;3.272;2023-04-01T15:17:20;14.88;;;13.90;;
21034;SDS011;10676;50.848;3.272;2023-04-01T15:33:35;11.82;;;10.80;;
21034;SDS011;10676;50.848;3.272;2023-04-01T15:36:12;11.60;;;10.90;;
21034;SDS011;10676;50.848;3.272;2023-04-01T15:38:53;9.55;;;8.73;;
21034;SDS011;10676;50.848;3.272;2023-04-01T15:47:14;23.00;;;21.38;;
21034;SDS011;10676;50.848;3.272;2023-04-01T15:50:05;17.98;;;16.48;;
21034;SDS011;10676;50.848;3.272;2023-04-01T15:55:46;8.40;;;7.75;;
21034;SDS011;10676;50.848;3.272;2023-04-01T16:01:19;13.40;;;12.02;;
21034;SDS011;10676;50.848;3.272;2023-04-01T16:07:10;11.23;;;10.45;;
21034;SDS011;10676;50.848;3.272;2023-04-01T16:13:08;10.05;;;8.90;;
21034;SDS011;10676;50.848;3.272;2023-04-01T16:21:36;11.82;;;7.32;;
21034;SDS011;10676;50.848;3.272;2023-04-01T16:24:20;10.02;;;9.20;;
21034;SDS011;10676;50.848;3.272;2023-04-01T16:27:00;9.80;;;7.47;;
21034;SDS011;10676;50.848;3.272;2023-04-01T16:29:32;8.52;;;7.72;;
21034;SDS011;10676;50.848;3.272;2023-04-01T16:37:59;9.95;;;8.23;;
21034;SDS011;10676;50.848;3.272;2023-04-01T16:51:45;9.02;;;8.38;;
21034;SDS011;10676;50.848;3.272;2023-04-01T16:57:18;12.90;;;8.70;;
21034;SDS011;10676;50.848;3.272;2023-04-01T17:02:35;13.05;;;12.05;;
21034;SDS011;10676;50.848;3.272;2023-04-01T17:05:08;10.18;;;8.00;;
21034;SDS011;10676;50.848;3.272;2023-04-01T17:07:50;7.53;;;6.93;;
21034;SDS011;10676;50.848;3.272;2023-04-01T17:10:42;9.35;;;8.45;;
21034;SDS011;10676;50.848;3.272;2023-04-01T17:21:15;8.88;;;8.23;;
21034;SDS011;10676;50.848;3.272;2023-04-01T17:26:27;7.38;;;6.47;;
21034;SDS011;10676;50.848;3.272;2023-04-01T17:29:19;7.93;;;7.32;;
21034;SDS011;10676;50.848;3.272;2023-04-01T17:34:59;7.68;;;7.00;;
21034;SDS011;10676;50.848;3.272;2023-04-01T17:38:18;9.65;;;8.90;;
21034;SDS011;10676;50.848;3.272;2023-04-01T17:43:22;14.65;;;13.20;;
21034;SDS011;10676;50.848;3.272;2023-04-01T17:46:02;12.15;;;11.05;;
21034;SDS011;10676;50.848;3.272;2023-04-01T17:48:40;13.40;;;12.15;;
21034;SDS011;10676;50.848;3.272;2023-04-01T17:56:41;10.05;;;8.93;;
21034;SDS011;10676;50.848;3.272;2023-04-01T17:59:28;11.60;;;10.35;;
21034;SDS011;10676;50.848;3.272;2023-04-01T18:07:16;9.02;;;8.13;;
21034;SDS011;10676;50.848;3.272;2023-04-01T18:21:46;9.90;;;9.00;;
21034;SDS011;10676;50.848;3.272;2023-04-01T18:27:00;11.43;;;9.65;;
21034;SDS011;10676;50.848;3.272;2023-04-01T18:29:35;10.13;;;9.23;;
21034;SDS011;10676;50.848;3.272;2023-04-01T18:37:25;11.35;;;10.25;;
21034;SDS011;10676;50.848;3.272;2023-04-01T18:40:10;11.35;;;10.40;;
21034;SDS011;10676;50.848;3.272;2023-04-01T18:48:22;15.27;;;12.35;;
21034;SDS011;10676;50.848;3.272;2023-04-01T18:51:13;13.48;;;12.27;;
21034;SDS011;10676;50.848;3.272;2023-04-01T18:53:53;13.25;;;12.05;;
21034;SDS011;10676;50.848;3.272;2023-04-01T18:56:48;17.23;;;15.07;;
21034;SDS011;10676;50.848;3.272;2023-04-01T18:59:25;14.45;;;13.05;;
21034;SDS011;10676;50.848;3.272;2023-04-01T19:13:14;13.90;;;12.50;;
21034;SDS011;10676;50.848;3.272;2023-04-01T19:21:52;17.25;;;15.70;;
21034;SDS011;10676;50.848;3.272;2023-04-01T19:32:16;14.43;;;13.27;;
21034;SDS011;10676;50.848;3.272;2023-04-01T19:34:55;12.63;;;11.43;;
21034;SDS011;10676;50.848;3.272;2023-04-01T19:46:35;13.90;;;11.98;;
21034;SDS011;10676;50.848;3.272;2023-04-01T19:54:18;18.15;;;13.25;;
21034;SDS011;10676;50.848;3.272;2023-04-01T19:59:34;20.88;;;14.35;;
21034;SDS011;10676;50.848;3.272;2023-04-01T20:04:37;30.70;;;23.92;;
21034;SDS011;10676;50.848;3.272;2023-04-01T20:10:10;20.08;;;12.85;;
21034;SDS011;10676;50.848;3.272;2023-04-01T20:17:56;21.00;;;13.65;;
21034;SDS011;10676;50.848;3.272;2023-04-01T20:20:25;18.70;;;15.18;;
21034;SDS011;10676;50.848;3.272;2023-04-01T20:26:08;14.57;;;12.45;;
21034;SDS011;10676;50.848;3.272;2023-04-01T20:29:12;25.77;;;21.40;;
21034;SDS011;10676;50.848;3.272;2023-04-01T20:31:40;18.98;;;13.02;;
21034;SDS011;10676;50.848;3.272;2023-04-01T20:48:11;28.48;;;20.20;;
21034;SDS011;10676;50.848;3.272;2023-04-01T20:50:50;36.75;;;17.35;;
21034;SDS011;10676;50.848;3.272;2023-04-01T20:53:20;37.22;;;17.13;;
21034;SDS011;10676;50.848;3.272;2023-04-01T21:04:27;33.72;;;18.23;;
21034;SDS011;10676;50.848;3.272;2023-04-01T21:07:28;29.33;;;16.85;;
21034;SDS011;10676;50.848;3.272;2023-04-01T21:16:04;39.13;;;20.95;;
21034;SDS011;10676;50.848;3.272;2023-04-01T21:19:02;29.67;;;17.00;;
21034;SDS011;10676;50.848;3.272;2023-04-01T21:26:43;37.45;;;18.17;;
21034;SDS011;10676;50.848;3.272;2023-04-01T21:37:41;43.10;;;21.30;;
21034;SDS011;10676;50.848;3.272;2023-04-01T21:46:18;35.97;;;18.25;;
21034;SDS011;10676;50.848;3.272;2023-04-01T21:49:11;41.63;;;30.83;;
21034;SDS011;10676;50.848;3.272;2023-04-01T22:00:19;31.92;;;20.88;;
21034;SDS011;10676;50.848;3.272;2023-04-01T22:02:57;29.38;;;15.55;;
21034;SDS011;10676;50.848;3.272;2023-04-01T22:08:27;25.50;;;16.75;;
21034;SDS011;10676;50.848;3.272;2023-04-01T22:13:49;33.97;;;19.33;;
21034;SDS011;10676;50.848;3.272;2023-04-01T22:19:30;37.63;;;20.88;;
21034;SDS011;10676;50.848;3.272;2023-04-01T22:22:11;39.55;;;22.58;;
21034;SDS011;10676;50.848;3.272;2023-04-01T22:32:31;54.35;;;24.77;;
21034;SDS011;10676;50.848;3.272;2023-04-01T22:35:23;53.58;;;26.52;;
21034;SDS011;10676;50.848;3.272;2023-04-01T22:43:24;39.88;;;23.05;;
21034;SDS011;10676;50.848;3.272;2023-04-01T22:46:11;51.33;;;23.88;;
21034;SDS011;10676;50.848;3.272;2023-04-01T22:48:47;48.50;;;26.85;;
21034;SDS011;10676;50.848;3.272;2023-04-01T22:51:23;39.40;;;22.80;;
21034;SDS011;10676;50.848;3.272;2023-04-01T22:56:37;42.15;;;22.50;;
21034;SDS011;10676;50.848;3.272;2023-04-01T22:59:20;37.83;;;21.42;;
21034;SDS011;10676;50.848;3.272;2023-04-01T23:01:56;46.40;;;22.83;;
21034;SDS011;10676;50.848;3.272;2023-04-01T23:04:30;41.28;;;23.60;;
21034;SDS011;10676;50.848;3.272;2023-04-01T23:07:00;46.70;;;21.45;;
21034;SDS011;10676;50.848;3.272;2023-04-01T23:09:31;43.28;;;24.40;;
21034;SDS011;10676;50.848;3.272;2023-04-01T23:12:13;37.53;;;24.05;;
21034;SDS011;10676;50.848;3.272;2023-04-01T23:14:43;35.38;;;20.35;;
21034;SDS011;10676;50.848;3.272;2023-04-01T23:23:26;36.17;;;17.13;;
21034;SDS011;10676;50.848;3.272;2023-04-01T23:28:55;41.10;;;18.17;;
21034;SDS011;10676;50.848;3.272;2023-04-01T23:34:17;38.85;;;24.42;;
21034;SDS011;10676;50.848;3.272;2023-04-01T23:36:51;43.47;;;18.63;;
21034;SDS011;10676;50.848;3.272;2023-04-01T23:41:50;38.15;;;17.65;;
21034;SDS011;10676;50.848;3.272;2023-04-01T23:44:18;36.40;;;18.83;;
21034;SDS011;10676;50.848;3.272;2023-04-01T23:46:45;31.13;;;17.73;;
21034;SDS011;10676;50.848;3.272;2023-04-01T23:49:14;28.30;;;15.77;;
21034;SDS011;10676;50.848;3.272;2023-04-01T23:52:19;35.75;;;16.60;;
21034;SDS011;10676;50.848;3.272;2023-04-01T23:54:58;30.60;;;16.33;;
